createdAt,value
2019-04-28T00:02:23.014Z,6.60
2019-04-28T00:04:51.529Z,6.56
2019-04-28T00:07:21.570Z,6.54
2019-04-28T00:09:51.119Z,6.72
2019-04-28T00:12:21.373Z,6.86
2019-04-28T00:14:51.634Z,7.08
2019-04-28T00:17:21.082Z,7.50
2019-04-28T00:19:51.474Z,7.76
2019-04-28T00:22:27.791Z,8.16
2019-04-28T00:25:01.568Z,8.52
2019-04-28T00:27:31.624Z,8.67
2019-04-28T00:30:01.966Z,8.87
2019-04-28T00:32:32.367Z,9.05
2019-04-28T00:35:02.312Z,9.05
2019-04-28T00:37:32.219Z,8.95
2019-04-28T00:40:01.086Z,8.92
2019-04-28T00:42:31.446Z,9.00
2019-04-28T00:45:01.667Z,8.95
2019-04-28T00:47:31.139Z,9.01
2019-04-28T00:50:01.947Z,9.23
2019-04-28T00:52:31.836Z,9.35
2019-04-28T00:55:01.200Z,9.26
2019-04-28T00:57:30.943Z,9.36
2019-04-28T01:00:02.171Z,9.47
2019-04-28T01:02:34.270Z,9.65
2019-04-28T01:05:02.760Z,9.46
2019-04-28T01:07:32.972Z,9.47
2019-04-28T01:10:01.882Z,9.60
2019-04-28T01:12:31.118Z,9.50
2019-04-28T01:15:04.024Z,9.72
2019-04-28T01:17:31.705Z,9.77
2019-04-28T01:20:09.734Z,9.64
2019-04-28T01:22:40.045Z,9.66
2019-04-28T01:25:08.347Z,9.63
2019-04-28T01:27:40.179Z,9.63
2019-04-28T01:30:11.306Z,9.75
2019-04-28T01:32:47.239Z,9.74
2019-04-28T01:35:15.916Z,9.63
2019-04-28T01:37:44.385Z,9.66
2019-04-28T01:40:13.116Z,9.70
2019-04-28T01:42:41.589Z,9.59
2019-04-28T01:45:10.604Z,9.52
2019-04-28T01:47:40.449Z,9.56
2019-04-28T01:50:10.229Z,9.60
2019-04-28T01:52:39.926Z,9.64
2019-04-28T01:55:10.148Z,9.57
2019-04-28T01:57:39.963Z,9.55
2019-04-28T02:00:22.159Z,9.53
2019-04-28T02:02:42.166Z,9.51
2019-04-28T02:05:10.735Z,9.39
2019-04-28T02:07:40.736Z,9.34
2019-04-28T02:10:10.291Z,9.23
2019-04-28T02:12:40.313Z,9.28
2019-04-28T02:15:10.490Z,9.21
2019-04-28T02:17:40.190Z,9.29
2019-04-28T02:20:10.414Z,9.12
2019-04-28T02:22:43.402Z,9.20
2019-04-28T02:25:12.078Z,9.23
2019-04-28T02:27:40.608Z,9.19
2019-04-28T02:30:11.346Z,9.18
2019-04-28T02:32:40.974Z,9.24
2019-04-28T02:35:10.768Z,9.28
2019-04-28T02:37:40.517Z,9.21
2019-04-28T02:40:10.659Z,9.11
2019-04-28T02:42:40.900Z,9.14
2019-04-28T02:45:11.854Z,9.26
2019-04-28T02:47:41.982Z,9.23
2019-04-28T02:50:12.641Z,9.36
2019-04-28T02:52:54.450Z,9.26
2019-04-28T02:55:23.207Z,9.12
2019-04-28T02:57:51.947Z,9.02
2019-04-28T03:00:21.634Z,9.05
2019-04-28T03:02:51.347Z,8.99
2019-04-28T03:05:21.545Z,8.97
2019-04-28T03:07:51.512Z,8.88
2019-04-28T03:10:21.327Z,9.01
2019-04-28T03:12:51.674Z,8.93
2019-04-28T03:15:20.709Z,8.86
2019-04-28T03:17:52.565Z,8.87
2019-04-28T03:20:21.011Z,8.89
2019-04-28T03:22:51.111Z,8.76
2019-04-28T03:25:24.168Z,8.77
2019-04-28T03:28:00.713Z,8.70
2019-04-28T03:30:36.791Z,8.55
2019-04-28T03:33:13.126Z,8.57
2019-04-28T03:35:37.157Z,8.58
2019-04-28T03:38:05.584Z,8.47
2019-04-28T03:40:34.167Z,8.39
2019-04-28T03:43:03.336Z,8.38
2019-04-28T03:45:40.960Z,8.40
2019-04-28T03:48:11.503Z,8.41
2019-04-28T03:50:41.404Z,8.50
2019-04-28T03:53:11.107Z,8.70
2019-04-28T03:55:41.688Z,8.88
2019-04-28T03:58:10.618Z,8.98
2019-04-28T04:00:40.884Z,8.88
2019-04-28T04:03:10.928Z,8.95
2019-04-28T04:05:40.618Z,8.96
2019-04-28T04:08:10.939Z,9.01
2019-04-28T04:10:44.330Z,9.13
2019-04-28T04:13:14.462Z,9.09
2019-04-28T04:15:50.691Z,9.09
2019-04-28T04:18:25.072Z,9.02
2019-04-28T04:20:53.543Z,9.06
2019-04-28T04:23:23.364Z,9.04
2019-04-28T04:25:52.087Z,8.89
2019-04-28T04:28:20.843Z,8.71
2019-04-28T04:30:50.854Z,8.76
2019-04-28T04:33:20.853Z,8.84
2019-04-28T04:35:51.775Z,8.86
2019-04-28T04:38:21.725Z,9.04
2019-04-28T04:40:51.278Z,9.14
2019-04-28T04:43:23.047Z,9.15
2019-04-28T04:45:51.986Z,9.33
2019-04-28T04:48:21.475Z,9.45
2019-04-28T04:50:51.012Z,9.40
2019-04-28T04:53:20.840Z,9.41
2019-04-28T04:55:50.532Z,9.19
2019-04-28T04:58:21.424Z,9.33
2019-04-28T05:00:51.553Z,9.31
2019-04-28T05:03:24.475Z,9.48
2019-04-28T05:05:52.945Z,9.45
2019-04-28T05:08:21.436Z,9.48
2019-04-28T05:10:50.307Z,9.53
2019-04-28T05:13:20.109Z,9.49
2019-04-28T05:15:48.743Z,9.61
2019-04-28T05:18:17.245Z,9.43
2019-04-28T05:20:45.787Z,9.28
2019-04-28T05:23:19.622Z,9.29
2019-04-28T05:25:49.736Z,9.33
2019-04-28T05:28:19.749Z,9.45
2019-04-28T05:30:50.136Z,9.46
2019-04-28T05:33:30.606Z,9.43
2019-04-28T05:36:00.987Z,9.62
2019-04-28T05:38:28.048Z,9.49
2019-04-28T05:40:56.535Z,9.37
2019-04-28T05:43:25.034Z,9.40
2019-04-28T05:45:53.496Z,9.43
2019-04-28T05:48:23.636Z,9.50
2019-04-28T05:50:53.738Z,9.44
2019-04-28T05:53:23.886Z,9.40
2019-04-28T05:56:00.187Z,9.50
2019-04-28T05:58:30.325Z,9.76
2019-04-28T06:01:00.454Z,9.78
2019-04-28T06:03:30.624Z,9.73
2019-04-28T06:05:59.999Z,9.77
2019-04-28T06:08:36.029Z,9.66
2019-04-28T06:11:22.155Z,9.76
2019-04-28T06:13:52.554Z,9.92
2019-04-28T06:16:22.137Z,10.06
2019-04-28T06:18:50.739Z,10.26
2019-04-28T06:21:19.204Z,10.36
2019-04-28T06:23:47.699Z,10.22
2019-04-28T06:26:16.170Z,10.17
2019-04-28T06:28:44.664Z,10.21
2019-04-28T06:31:13.204Z,10.32
2019-04-28T06:33:44.413Z,10.36
2019-04-28T06:36:11.903Z,10.37
2019-04-28T06:38:40.395Z,10.51
2019-04-28T06:41:08.855Z,10.19
2019-04-28T06:43:37.355Z,10.46
2019-04-28T06:46:05.823Z,10.63
2019-04-28T06:48:34.318Z,10.78
2019-04-28T06:51:02.812Z,10.79
2019-04-28T06:53:31.308Z,10.93
2019-04-28T06:55:59.782Z,11.02
2019-04-28T06:58:28.271Z,11.18
2019-04-28T07:00:56.744Z,11.19
2019-04-28T07:03:25.218Z,11.12
2019-04-28T07:05:53.721Z,11.04
2019-04-28T07:08:22.192Z,10.89
2019-04-28T07:10:50.687Z,11.03
2019-04-28T07:13:20.641Z,11.18
2019-04-28T07:15:49.314Z,11.26
2019-04-28T07:18:17.795Z,11.26
2019-04-28T07:20:59.814Z,11.03
2019-04-28T07:23:28.753Z,11.09
2019-04-28T07:25:57.494Z,11.44
2019-04-28T07:28:25.961Z,11.50
2019-04-28T07:30:54.592Z,11.63
2019-04-28T07:33:35.261Z,11.44
2019-04-28T07:35:53.371Z,11.42
2019-04-28T07:38:21.827Z,11.68
2019-04-28T07:40:50.323Z,11.61
2019-04-28T07:43:18.804Z,11.49
2019-04-28T07:45:47.303Z,11.55
2019-04-28T07:48:15.780Z,11.82
2019-04-28T07:50:44.281Z,12.37
2019-04-28T07:53:14.389Z,12.36
2019-04-28T07:55:42.936Z,12.01
2019-04-28T07:58:11.439Z,11.19
2019-04-28T08:00:40.024Z,11.29
2019-04-28T08:03:08.564Z,10.87
2019-04-28T08:05:37.060Z,11.20
2019-04-28T08:08:05.540Z,11.67
2019-04-28T08:10:34.043Z,12.16
2019-04-28T08:13:02.525Z,12.38
2019-04-28T08:15:31.024Z,12.56
2019-04-28T08:17:59.500Z,12.76
2019-04-28T08:20:28.000Z,12.59
2019-04-28T08:22:56.467Z,12.78
2019-04-28T08:25:25.034Z,12.93
2019-04-28T08:27:53.511Z,12.77
2019-04-28T08:30:22.085Z,12.39
2019-04-28T08:32:52.195Z,12.53
2019-04-28T08:35:20.692Z,12.22
2019-04-28T08:37:49.161Z,12.30
2019-04-28T08:40:17.669Z,12.13
2019-04-28T08:42:46.145Z,11.86
2019-04-28T08:45:14.954Z,11.83
2019-04-28T08:47:43.449Z,11.90
2019-04-28T08:50:12.471Z,12.04
2019-04-28T08:52:40.938Z,12.29
2019-04-28T08:55:09.437Z,12.26
2019-04-28T08:57:37.914Z,12.46
2019-04-28T09:00:09.395Z,12.86
2019-04-28T09:02:37.858Z,12.58
2019-04-28T09:05:06.730Z,12.48
2019-04-28T09:07:35.207Z,12.48
2019-04-28T09:10:05.128Z,12.36
2019-04-28T09:12:33.624Z,12.40
2019-04-28T09:15:02.097Z,12.23
2019-04-28T09:17:30.596Z,12.21
2019-04-28T09:19:59.064Z,12.18
2019-04-28T09:22:27.564Z,12.04
2019-04-28T09:24:56.036Z,12.22
2019-04-28T09:27:24.536Z,12.53
2019-04-28T09:29:53.002Z,12.79
2019-04-28T09:32:21.500Z,13.03
2019-04-28T09:34:49.972Z,13.34
2019-04-28T09:37:18.470Z,13.77
2019-04-28T09:39:48.582Z,13.94
2019-04-28T09:42:30.710Z,14.00
2019-04-28T09:45:15.071Z,13.55
2019-04-28T09:47:43.581Z,13.11
2019-04-28T09:50:12.102Z,13.29
2019-04-28T09:52:40.676Z,12.69
2019-04-28T09:55:09.699Z,12.94
2019-04-28T09:57:38.201Z,12.87
2019-04-28T10:00:08.496Z,13.23
2019-04-28T10:02:36.998Z,12.87
2019-04-28T10:05:09.700Z,13.00
2019-04-28T10:07:38.203Z,12.95
2019-04-28T10:10:08.580Z,12.91
2019-04-28T10:12:37.071Z,12.43
2019-04-28T10:15:08.324Z,12.56
2019-04-28T10:17:36.893Z,12.87
2019-04-28T10:20:06.958Z,12.93
2019-04-28T10:22:35.439Z,13.05
2019-04-28T10:25:06.465Z,13.23
2019-04-28T10:27:34.966Z,13.46
2019-04-28T10:30:04.686Z,13.47
2019-04-28T10:32:33.313Z,13.54
2019-04-28T10:35:01.790Z,13.50
2019-04-28T10:37:30.291Z,13.22
2019-04-28T10:40:00.399Z,13.24
2019-04-28T10:42:28.899Z,13.10
2019-04-28T10:44:57.450Z,13.11
2019-04-28T10:47:26.028Z,13.20
2019-04-28T10:49:54.949Z,13.07
2019-04-28T10:52:23.451Z,12.76
2019-04-28T10:54:51.934Z,12.41
2019-04-28T10:57:20.442Z,12.55
2019-04-28T10:59:48.922Z,12.85
2019-04-28T11:02:17.421Z,12.84
2019-04-28T11:04:47.560Z,12.67
2019-04-28T11:07:17.208Z,13.02
2019-04-28T11:09:50.255Z,13.57
2019-04-28T11:12:20.387Z,14.38
2019-04-28T11:14:48.888Z,14.67
2019-04-28T11:17:17.515Z,14.74
2019-04-28T11:19:46.019Z,15.21
2019-04-28T11:22:14.764Z,15.75
2019-04-28T11:24:43.256Z,14.35
2019-04-28T11:27:12.266Z,14.76
2019-04-28T11:29:40.771Z,14.84
2019-04-28T11:32:11.574Z,14.40
2019-04-28T11:34:41.423Z,14.85
2019-04-28T11:37:09.969Z,15.28
2019-04-28T11:39:40.183Z,15.83
2019-04-28T11:42:08.900Z,15.70
2019-04-28T11:44:37.395Z,15.71
2019-04-28T11:47:07.700Z,14.63
2019-04-28T11:49:36.187Z,15.09
2019-04-28T11:52:05.290Z,15.42
2019-04-28T11:54:33.782Z,15.81
2019-04-28T11:57:02.263Z,15.95
2019-04-28T11:59:31.213Z,16.27
2019-04-28T12:01:59.690Z,15.00
2019-04-28T12:04:28.259Z,14.31
2019-04-28T12:06:56.734Z,13.79
2019-04-28T12:09:44.742Z,13.41
2019-04-28T12:12:23.327Z,13.60
2019-04-28T12:14:56.148Z,13.47
2019-04-28T12:17:28.992Z,13.68
2019-04-28T12:19:59.134Z,13.96
2019-04-28T12:22:27.630Z,14.14
2019-04-28T12:24:56.139Z,14.19
2019-04-28T12:27:24.710Z,14.17
2019-04-28T12:29:53.284Z,14.77
2019-04-28T12:32:21.764Z,15.16
2019-04-28T12:34:50.264Z,15.24
2019-04-28T12:37:18.737Z,15.34
2019-04-28T12:39:47.240Z,15.43
2019-04-28T12:42:15.705Z,15.94
2019-04-28T12:44:44.203Z,15.75
2019-04-28T12:47:12.676Z,17.02
2019-04-28T12:49:45.461Z,18.06
2019-04-28T12:52:14.088Z,18.14
2019-04-28T12:54:44.682Z,19.65
2019-04-28T12:57:12.962Z,18.94
2019-04-28T12:59:45.977Z,19.02
2019-04-28T13:02:21.626Z,18.06
2019-04-28T13:04:57.405Z,19.95
2019-04-28T13:07:25.910Z,18.81
2019-04-28T13:09:54.454Z,17.93
2019-04-28T13:12:23.026Z,16.87
2019-04-28T13:14:51.496Z,16.10
2019-04-28T13:17:20.028Z,16.18
2019-04-28T13:19:48.571Z,15.50
2019-04-28T13:22:17.073Z,15.99
2019-04-28T13:24:46.456Z,16.98
2019-04-28T13:27:15.087Z,17.30
2019-04-28T13:29:43.559Z,17.70
2019-04-28T13:32:12.066Z,18.33
2019-04-28T13:34:41.094Z,19.17
2019-04-28T13:37:09.795Z,17.32
2019-04-28T13:39:42.508Z,18.57
2019-04-28T13:42:10.996Z,20.65
2019-04-28T13:44:49.890Z,22.04
2019-04-28T13:47:18.377Z,22.39
2019-04-28T13:49:51.712Z,20.97
2019-04-28T13:52:20.261Z,21.15
2019-04-28T13:54:50.375Z,19.78
2019-04-28T13:57:18.946Z,19.73
2019-04-28T13:59:49.060Z,19.98
2019-04-28T14:02:35.636Z,20.04
2019-04-28T14:05:10.056Z,19.37
2019-04-28T14:07:38.544Z,17.92
2019-04-28T14:10:08.856Z,16.27
2019-04-28T14:12:37.456Z,15.64
2019-04-28T14:15:06.534Z,15.14
2019-04-28T14:17:35.039Z,15.14
2019-04-28T14:20:04.707Z,14.76
2019-04-28T14:22:33.189Z,14.45
2019-04-28T14:25:01.664Z,14.23
2019-04-28T14:27:30.225Z,13.59
2019-04-28T14:29:58.719Z,14.13
2019-04-28T14:32:27.217Z,14.12
2019-04-28T14:34:55.687Z,14.28
2019-04-28T14:37:24.232Z,14.56
2019-04-28T14:39:52.665Z,14.70
2019-04-28T14:42:21.152Z,14.48
2019-04-28T14:44:49.685Z,14.57
2019-04-28T14:47:18.127Z,15.26
2019-04-28T14:49:46.616Z,15.74
2019-04-28T14:52:15.087Z,15.13
2019-04-28T14:54:43.599Z,15.13
2019-04-28T14:57:12.046Z,15.07
2019-04-28T14:59:40.663Z,15.33
2019-04-28T15:02:16.495Z,16.23
2019-04-28T15:05:02.899Z,16.29
2019-04-28T15:07:38.524Z,16.06
2019-04-28T15:10:24.060Z,15.24
2019-04-28T15:12:52.530Z,15.17
2019-04-28T15:15:21.123Z,14.39
2019-04-28T15:17:49.577Z,14.84
2019-04-28T15:20:18.240Z,14.80
2019-04-28T15:22:46.697Z,14.98
2019-04-28T15:25:15.277Z,14.63
2019-04-28T15:27:43.737Z,14.49
2019-04-28T15:30:12.472Z,14.95
2019-04-28T15:32:40.939Z,15.08
2019-04-28T15:35:09.573Z,15.24
2019-04-28T15:37:38.045Z,15.02
2019-04-28T15:40:09.666Z,15.28
2019-04-28T15:42:38.138Z,15.15
2019-04-28T15:45:06.987Z,15.35
2019-04-28T15:47:35.600Z,15.65
2019-04-28T15:50:06.130Z,15.18
2019-04-28T15:52:34.597Z,14.92
2019-04-28T15:55:04.771Z,15.02
2019-04-28T15:57:33.252Z,15.14
2019-04-28T16:00:01.825Z,14.90
2019-04-28T16:02:30.457Z,14.30
2019-04-28T16:04:58.966Z,14.06
2019-04-28T16:07:27.451Z,14.15
2019-04-28T16:09:55.951Z,14.18
2019-04-28T16:12:24.435Z,14.11
2019-04-28T16:14:52.939Z,14.12
2019-04-28T16:17:21.420Z,13.69
2019-04-28T16:19:49.914Z,13.91
2019-04-28T16:22:18.397Z,13.91
2019-04-28T16:24:47.141Z,13.69
2019-04-28T16:27:15.644Z,13.63
2019-04-28T16:29:44.119Z,13.35
2019-04-28T16:32:12.784Z,13.34
2019-04-28T16:34:41.254Z,13.42
2019-04-28T16:37:09.754Z,13.55
2019-04-28T16:39:38.217Z,13.32
2019-04-28T16:42:06.715Z,13.50
2019-04-28T16:44:35.186Z,13.08
2019-04-28T16:47:03.681Z,13.19
2019-04-28T16:49:32.150Z,13.44
2019-04-28T16:52:00.653Z,13.09
2019-04-28T16:54:29.237Z,13.06
2019-04-28T16:56:59.456Z,13.15
2019-04-28T16:59:35.758Z,13.03
2019-04-28T17:02:18.082Z,13.01
2019-04-28T17:04:46.566Z,13.20
2019-04-28T17:07:15.064Z,13.14
2019-04-28T17:09:43.575Z,13.15
2019-04-28T17:12:12.074Z,13.01
2019-04-28T17:14:40.540Z,12.94
2019-04-28T17:17:09.044Z,13.11
2019-04-28T17:19:37.519Z,13.11
2019-04-28T17:22:06.260Z,12.97
2019-04-28T17:24:34.799Z,12.63
2019-04-28T17:27:03.368Z,12.44
2019-04-28T17:29:31.848Z,12.65
2019-04-28T17:32:00.358Z,12.73
2019-04-28T17:34:28.896Z,12.39
2019-04-28T17:36:57.402Z,12.48
2019-04-28T17:39:27.538Z,12.42
2019-04-28T17:41:56.038Z,12.45
2019-04-28T17:44:24.584Z,12.40
2019-04-28T17:46:53.095Z,12.49
2019-04-28T17:49:23.201Z,12.36
2019-04-28T17:51:51.709Z,12.24
2019-04-28T17:54:20.195Z,12.26
2019-04-28T17:56:48.675Z,12.08
2019-04-28T17:59:17.170Z,11.95
2019-04-28T18:01:47.283Z,12.12
2019-04-28T18:04:20.127Z,12.27
2019-04-28T18:06:53.047Z,12.19
2019-04-28T18:09:21.632Z,12.22
2019-04-28T18:11:50.243Z,12.20
2019-04-28T18:14:18.738Z,12.10
2019-04-28T18:17:04.771Z,12.11
2019-04-28T18:19:33.268Z,12.09
2019-04-28T18:22:01.744Z,11.94
2019-04-28T18:24:30.250Z,12.03
2019-04-28T18:26:58.732Z,12.16
2019-04-28T18:29:27.221Z,11.82
2019-04-28T18:32:05.892Z,11.86
2019-04-28T18:34:51.943Z,11.72
2019-04-28T18:37:38.611Z,11.92
2019-04-28T18:40:26.095Z,11.78
2019-04-28T18:43:12.980Z,11.76
2019-04-28T18:45:41.662Z,11.63
2019-04-28T18:48:10.247Z,11.52
2019-04-28T18:50:38.714Z,11.40
2019-04-28T18:53:07.610Z,11.39
2019-04-28T18:55:36.435Z,11.42
2019-04-28T18:58:05.316Z,11.55
2019-04-28T19:00:35.728Z,11.67
2019-04-28T19:03:04.471Z,11.77
2019-04-28T19:05:34.584Z,11.63
2019-04-28T19:08:04.724Z,11.70
2019-04-28T19:10:40.142Z,11.65
2019-04-28T19:13:15.927Z,11.59
2019-04-28T19:15:48.828Z,11.45
2019-04-28T19:18:22.010Z,11.39
2019-04-28T19:20:50.484Z,11.39
2019-04-28T19:23:18.981Z,11.43
2019-04-28T19:25:47.814Z,11.39
2019-04-28T19:28:16.634Z,11.32
2019-04-28T19:30:45.813Z,11.29
2019-04-28T19:33:14.502Z,11.31
2019-04-28T19:35:42.986Z,11.28
2019-04-28T19:38:11.456Z,11.23
2019-04-28T19:40:40.100Z,11.31
2019-04-28T19:43:08.573Z,11.21
2019-04-28T19:45:38.706Z,11.10
2019-04-28T19:48:07.172Z,11.03
2019-04-28T19:50:35.695Z,11.00
2019-04-28T19:53:04.240Z,10.94
2019-04-28T19:55:34.376Z,10.86
2019-04-28T19:58:19.875Z,10.80
2019-04-28T20:00:50.088Z,10.81
2019-04-28T20:03:18.565Z,10.75
2019-04-28T20:05:47.070Z,10.66
2019-04-28T20:08:15.549Z,10.64
2019-04-28T20:10:44.441Z,10.65
2019-04-28T20:13:12.910Z,10.57
2019-04-28T20:15:41.415Z,10.54
2019-04-28T20:18:09.965Z,10.48
2019-04-28T20:20:38.458Z,10.44
2019-04-28T20:23:07.024Z,10.38
2019-04-28T20:25:35.531Z,10.32
2019-04-28T20:28:04.143Z,10.27
2019-04-28T20:30:32.645Z,10.22
2019-04-28T20:33:07.500Z,10.18
2019-04-28T20:35:33.044Z,10.20
2019-04-28T20:38:05.824Z,10.13
2019-04-28T20:40:38.930Z,10.08
2019-04-28T20:43:09.045Z,10.04
2019-04-28T20:45:37.542Z,10.00
2019-04-28T20:48:06.018Z,10.07
2019-04-28T20:50:34.509Z,9.85
2019-04-28T20:53:02.980Z,9.88
2019-04-28T20:55:31.470Z,9.87
2019-04-28T20:57:59.940Z,9.79
2019-04-28T21:00:28.430Z,9.78
2019-04-28T21:02:56.899Z,9.72
2019-04-28T21:05:25.392Z,9.63
2019-04-28T21:07:53.856Z,9.57
2019-04-28T21:10:22.350Z,9.48
2019-04-28T21:12:50.915Z,9.45
2019-04-28T21:15:19.409Z,9.37
2019-04-28T21:17:47.938Z,9.31
2019-04-28T21:20:16.423Z,9.33
2019-04-28T21:22:44.969Z,9.50
2019-04-28T21:25:13.510Z,9.45
2019-04-28T21:27:42.144Z,9.38
2019-04-28T21:30:11.364Z,9.39
2019-04-28T21:32:39.840Z,9.30
2019-04-28T21:35:08.544Z,9.23
2019-04-28T21:37:37.036Z,9.10
2019-04-28T21:40:08.087Z,8.94
2019-04-28T21:42:54.360Z,8.87
2019-04-28T21:45:26.967Z,8.75
2019-04-28T21:47:55.460Z,8.56
2019-04-28T21:50:23.923Z,8.53
2019-04-28T21:52:52.411Z,8.43
2019-04-28T21:55:20.886Z,8.42
2019-04-28T21:57:49.378Z,8.43
2019-04-28T22:00:21.993Z,8.34
2019-04-28T22:02:50.490Z,8.30
2019-04-28T22:05:29.859Z,8.35
2019-04-28T22:07:49.171Z,8.36
2019-04-28T22:10:17.633Z,8.43
2019-04-28T22:12:46.162Z,8.50
2019-04-28T22:15:14.703Z,8.47
2019-04-28T22:17:43.203Z,8.53
2019-04-28T22:20:11.833Z,8.60
2019-04-28T22:22:40.322Z,8.59
2019-04-28T22:25:10.495Z,8.60
2019-04-28T22:27:41.631Z,8.65
2019-04-28T22:30:09.732Z,8.70
2019-04-28T22:32:38.366Z,8.77
2019-04-28T22:35:07.476Z,8.78
2019-04-28T22:37:36.040Z,8.84
2019-04-28T22:40:06.500Z,8.99
2019-04-28T22:42:34.992Z,9.12
2019-04-28T22:45:04.339Z,9.12
2019-04-28T22:47:32.828Z,9.11
2019-04-28T22:50:01.292Z,8.99
2019-04-28T22:52:29.786Z,9.08
2019-04-28T22:54:59.900Z,9.23
2019-04-28T22:57:38.795Z,9.36
2019-04-28T23:00:12.277Z,9.43
2019-04-28T23:02:40.802Z,9.51
2019-04-28T23:05:09.402Z,9.59
2019-04-28T23:07:37.894Z,9.66
2019-04-28T23:10:08.871Z,9.68
2019-04-28T23:12:37.361Z,9.56
2019-04-28T23:15:08.268Z,9.69
2019-04-28T23:17:36.766Z,9.63
2019-04-28T23:20:08.342Z,9.57
2019-04-28T23:22:46.641Z,9.76
2019-04-28T23:25:08.913Z,9.91
2019-04-28T23:27:37.376Z,9.92
2019-04-28T23:30:07.813Z,10.20
2019-04-28T23:32:36.278Z,10.20
2019-04-28T23:35:05.923Z,10.16
2019-04-28T23:37:34.390Z,10.15
2019-04-28T23:40:02.957Z,10.24
2019-04-28T23:42:36.018Z,10.10
2019-04-28T23:45:06.453Z,10.16
2019-04-28T23:47:34.965Z,10.04
2019-04-28T23:50:05.599Z,9.83
2019-04-28T23:52:38.405Z,9.85
2019-04-28T23:55:09.176Z,9.85
2019-04-28T23:57:37.637Z,9.90
